avis per tempestes more information blitzortung!


avis per Pluja more information rain snow radar


Visita la nostra xarxa de llocs de meteo:

Template documentation
and downloads

And another site



Thunderstorms From: 18-09-2018 20:00 Until: 19-09-2018 10:59 warning for: Thunderstorms Level: Yellow info button
Rain From: 18-09-2018 20:00 Until: 19-09-2018 10:59 warning for: Rain Level: Yellow info button

Pagina Historial Weather Underground text

Diari Resum May 26, 2017 Unitats:  Imperial    Mètric   Tant
« Previous Dia
SegĂźent Dia »
Diari Setmana Mensual Anual Personalitzada
  Maxima: Minima: Media:
Temperatura: TemperatureC °F 15.3 °F 22.1 °F
Punt de rosada: DewpointC °F 8.1 °F 12.8 °F
Humitat: Humidity % 42 % 57 %
Wind Speed: WindSpeedKMH mph 0.0 mph 8.3 mph
RĂ fegues de vent: WindSpeedGustKMH mph - -
Vent:- - East
Pression baro: PressurehPa in 1011.7 in -
Precipitacions: 0.0 in    
Historical Graphs
 
 
Dades de taula per May 26, 2017
Temps Temperatura Punt de rosada Pression baro Vent Wind Speed RĂ fegues de vent Humitat Rainfall Rate (Hourly)
TemperatureC °F DewpointC °F PressurehPa in Calm     Humidity % HourlyPrecipMM in
00:00 16.3 °F 8.8 °F 1013.8 in Calm   3.2 mph 61 % 0.0 in
00:03 21.6 °F 8.1 °F 1011.7 in SW 1.9 mph 1.9 mph 42 % 0.0 in
00:08 21.5 °F 8.1 °F 1011.7 in WSW 2.3 mph 2.3 mph 42 % 0.0 in
00:10 16.2 °F 8.4 °F 1013.8 in Calm     60 % 0.0 in
00:13 21.4 °F 8.3 °F 1011.7 in WSW 1.9 mph 1.9 mph 43 % 0.0 in
00:20 16.2 °F 8.4 °F 1013.8 in Calm     60 % 0.0 in
00:30 16.4 °F 9.1 °F 1012.8 in WSW 1.6 mph 3.2 mph 62 % 0.0 in
00:40 16.3 °F 8.8 °F 1012.8 in East 1.6 mph 1.6 mph 61 % 0.0 in
00:50 16.2 °F 8.7 °F 1012.8 in ENE 1.6 mph 3.2 mph 61 % 0.0 in
01:00 16.2 °F 8.7 °F 1013.8 in Calm     61 % 0.0 in
01:10 16.0 °F 8.5 °F 1013.8 in Calm     61 % 0.0 in
01:20 15.9 °F 8.6 °F 1013.8 in Calm     62 % 0.0 in
01:30 15.6 °F 8.3 °F 1012.8 in WNW 1.6 mph 1.6 mph 62 % 0.0 in
01:40 15.5 °F 8.2 °F 1012.8 in WSW 1.6 mph 1.6 mph 62 % 0.0 in
01:50 15.4 °F 8.2 °F 1012.8 in SW 1.6 mph 3.2 mph 62 % 0.0 in
02:00 15.3 °F 8.1 °F 1013.8 in Calm   3.2 mph 62 % 0.0 in
02:10 15.6 °F 8.3 °F 1013.8 in Calm     62 % 0.0 in
02:20 16.0 °F 8.5 °F 1013.8 in Calm     61 % 0.0 in
02:30 16.5 °F 8.9 °F 1012.8 in ESE 1.6 mph 3.2 mph 61 % 0.0 in
02:40 17.1 °F 9.0 °F 1013.8 in Calm   1.6 mph 59 % 0.0 in
02:50 17.6 °F 9.5 °F 1013.8 in NE 1.6 mph 3.2 mph 59 % 0.0 in
03:00 17.8 °F 9.2 °F 1014.8 in NE 1.6 mph 1.6 mph 57 % 0.0 in
03:10 18.2 °F 9.6 °F 1013.8 in NNE 3.2 mph 4.8 mph 57 % 0.0 in
03:20 18.5 °F 9.6 °F 1013.8 in NE 3.2 mph 4.8 mph 56 % 0.0 in
03:30 19.0 °F 9.5 °F 1014.8 in ENE 1.6 mph 4.8 mph 54 % 0.0 in
03:40 19.9 °F 10.3 °F 1013.8 in Calm   3.2 mph 54 % 0.0 in
03:50 20.0 °F 10.4 °F 1013.8 in ENE 3.2 mph 4.8 mph 54 % 0.0 in
04:00 20.5 °F 10.6 °F 1014.8 in ENE 3.2 mph 4.8 mph 53 % 0.0 in
04:10 20.8 °F 10.6 °F 1014.8 in ENE 1.6 mph 6.4 mph 52 % 0.0 in
04:20 21.0 °F 10.8 °F 1014.8 in NE 3.2 mph 4.8 mph 52 % 0.0 in
04:30 21.4 °F 10.8 °F 1014.8 in NE 3.2 mph 6.4 mph 51 % 0.0 in
04:40 21.7 °F 10.8 °F 1014.8 in ENE 3.2 mph 4.8 mph 50 % 0.0 in
04:50 22.6 °F 11.7 °F 1014.8 in Calm   3.2 mph 50 % 0.0 in
09:59 22.7 °F 11.4 °F 1014.8 in ESE 5.6 mph 5.6 mph 49 % 0.0 in
10:04 22.7 °F 11.4 °F 1014.8 in SE 5.6 mph 5.6 mph 49 % 0.0 in
10:09 22.8 °F 11.5 °F 1014.8 in NE 9.3 mph 9.3 mph 49 % 0.0 in
10:14 23.1 °F 11.5 °F 1014.8 in NNE 9.3 mph 9.3 mph 48 % 0.0 in
10:19 23.2 °F 11.9 °F 1014.8 in East 5.6 mph 5.6 mph 49 % 0.0 in
10:24 23.3 °F 12.0 °F 1014.8 in NNE 9.3 mph 9.3 mph 49 % 0.0 in
10:29 23.5 °F 12.2 °F 1014.8 in ENE 9.3 mph 9.3 mph 49 % 0.0 in
10:34 23.7 °F 12.3 °F 1014.8 in ESE 5.6 mph 5.6 mph 49 % 0.0 in
10:39 24.2 °F 12.8 °F 1013.8 in ESE 9.3 mph 9.3 mph 49 % 0.0 in
10:44 24.6 °F 13.2 °F 1013.8 in ENE 5.6 mph 5.6 mph 49 % 0.0 in
10:45 24.6 °F 13.2 °F 1013.8 in ENE 3.2 mph 8.0 mph 49 % 0.0 in
10:50 24.5 °F 13.1 °F 1013.8 in East 3.2 mph 11.3 mph 49 % 0.0 in
10:55 24.7 °F 12.9 °F 1014.8 in ESE 8.0 mph 11.3 mph 48 % 0.0 in
11:00 24.9 °F 13.1 °F 1014.8 in ENE 4.8 mph 6.4 mph 48 % 0.0 in
11:05 24.9 °F 12.8 °F 1014.8 in ESE 7.9 mph 7.9 mph 47 % 0.0 in
11:10 25.5 °F 13.3 °F 1013.8 in East 9.0 mph 9.0 mph 47 % 0.0 in
11:15 25.0 °F 12.6 °F 1013.8 in ESE 9.7 mph 12.9 mph 46 % 0.0 in
11:20 25.5 °F 13.1 °F 1013.8 in East 4.8 mph 9.7 mph 46 % 0.0 in
11:25 25.1 °F 12.7 °F 1013.8 in ESE 9.7 mph 11.3 mph 46 % 0.0 in
11:30 25.8 °F 13.3 °F 1013.8 in ESE 9.3 mph 9.3 mph 46 % 0.0 in
11:35 26.6 °F 13.7 °F 1013.8 in SSE 7.4 mph 7.4 mph 45 % 0.0 in
11:40 26.7 °F 13.8 °F 1013.8 in ESE 10.3 mph 10.3 mph 45 % 0.0 in
11:45 26.2 °F 13.0 °F 1013.8 in East 7.4 mph 7.4 mph 44 % 0.0 in
11:50 26.3 °F 12.7 °F 1013.8 in ENE 9.3 mph 9.3 mph 43 % 0.0 in
11:55 26.0 °F 12.8 °F 1013.8 in ESE 9.3 mph 9.3 mph 44 % 0.0 in
12:00 26.5 °F 13.3 °F 1013.8 in NNE 9.0 mph 9.0 mph 44 % 0.0 in
12:05 26.9 °F 13.6 °F 1013.8 in ESE 7.4 mph 7.4 mph 44 % 0.0 in
12:10 26.9 °F 13.6 °F 1013.8 in North 9.0 mph 9.0 mph 44 % 0.0 in
12:15 26.8 °F 13.5 °F 1013.8 in ESE 13.0 mph 13.0 mph 44 % 0.0 in
12:20 26.9 °F 13.6 °F 1013.8 in East 9.3 mph 9.3 mph 44 % 0.0 in
12:25 27.3 °F 13.6 °F 1013.8 in ESE 13.0 mph 13.0 mph 43 % 0.0 in
12:30 27.5 °F 13.4 °F 1013.8 in NE 9.3 mph 9.3 mph 42 % 0.0 in
12:35 27.1 °F 13.1 °F 1013.8 in ENE 9.5 mph 9.5 mph 42 % 0.0 in
12:40 26.9 °F 13.3 °F 1013.8 in North 14.8 mph 14.8 mph 43 % 0.0 in
12:45 27.1 °F 13.1 °F 1013.8 in ESE 11.1 mph 11.1 mph 42 % 0.0 in
12:50 27.1 °F 13.1 °F 1013.8 in ESE 13.0 mph 13.0 mph 42 % 0.0 in
12:55 27.0 °F 13.0 °F 1013.8 in East 14.8 mph 14.8 mph 42 % 0.0 in
13:00 27.0 °F 13.0 °F 1013.8 in ENE 14.8 mph 14.8 mph 42 % 0.0 in
13:05 26.7 °F 13.1 °F 1013.8 in ENE 13.0 mph 13.0 mph 43 % 0.0 in
13:10 27.0 °F 13.3 °F 1012.8 in East 7.4 mph 7.4 mph 43 % 0.0 in
13:15 26.8 °F 13.5 °F 1012.8 in ESE 16.7 mph 16.7 mph 44 % 0.0 in
13:20 26.7 °F 13.4 °F 1012.8 in ESE 18.5 mph 18.5 mph 44 % 0.0 in
13:25 27.2 °F 13.6 °F 1013.8 in ESE 16.7 mph 16.7 mph 43 % 0.0 in
13:30 26.7 °F 13.4 °F 1013.8 in NE 16.7 mph 16.7 mph 44 % 0.0 in
13:35 27.1 °F 13.4 °F 1013.8 in ENE 13.0 mph 13.0 mph 43 % 0.0 in
13:40 26.9 °F 13.6 °F 1013.8 in ESE 11.1 mph 11.1 mph 44 % 0.0 in
13:45 26.9 °F 13.6 °F 1013.8 in East 16.7 mph 16.7 mph 44 % 0.0 in
13:50 26.8 °F 13.5 °F 1013.8 in ESE 17.2 mph 17.2 mph 44 % 0.0 in
13:55 26.9 °F 13.6 °F 1013.8 in ESE 13.0 mph 13.0 mph 44 % 0.0 in
14:00 26.7 °F 13.4 °F 1013.8 in ESE 16.7 mph 16.7 mph 44 % 0.0 in
14:05 26.6 °F 13.3 °F 1013.8 in ESE 15.1 mph 15.1 mph 44 % 0.0 in
14:10 26.6 °F 13.7 °F 1013.8 in ENE 16.7 mph 16.7 mph 45 % 0.0 in
14:15 26.5 °F 13.6 °F 1013.8 in ENE 20.4 mph 20.4 mph 45 % 0.0 in
14:20 26.7 °F 13.8 °F 1013.8 in ESE 13.7 mph 13.7 mph 45 % 0.0 in
14:25 26.8 °F 14.2 °F 1014.8 in ENE 14.8 mph 14.8 mph 46 % 0.0 in
14:30 26.2 °F 13.7 °F 1014.8 in ESE 16.7 mph 16.7 mph 46 % 0.0 in
14:35 26.6 °F 14.1 °F 1014.8 in ENE 16.7 mph 16.7 mph 46 % 0.0 in
14:40 26.1 °F 13.6 °F 1013.8 in East 18.3 mph 18.3 mph 46 % 0.0 in
14:45 26.3 °F 14.1 °F 1013.8 in ESE 14.8 mph 14.8 mph 47 % 0.0 in
14:50 26.1 °F 13.9 °F 1013.8 in ENE 14.8 mph 14.8 mph 47 % 0.0 in
14:51 26.1 °F 13.9 °F 1013.8 in SSE 11.1 mph 11.1 mph 47 % 0.0 in
14:56 26.1 °F 13.9 °F 1013.8 in East 13.0 mph 13.0 mph 47 % 0.0 in
15:01 26.2 °F 14.0 °F 1013.8 in ESE 16.7 mph 16.7 mph 47 % 0.0 in
15:06 26.0 °F 13.8 °F 1013.8 in ESE 16.7 mph 16.7 mph 47 % 0.0 in
15:11 25.8 °F 13.9 °F 1013.8 in ENE 11.1 mph 11.1 mph 48 % 0.0 in
15:16 25.7 °F 13.6 °F 1013.8 in East 18.5 mph 18.5 mph 47 % 0.0 in
15:21 25.7 °F 13.9 °F 1013.8 in SE 16.7 mph 16.7 mph 48 % 0.0 in
15:26 25.6 °F 13.8 °F 1013.8 in NNE 16.7 mph 16.7 mph 48 % 0.0 in
15:31 25.4 °F 13.6 °F 1013.8 in SE 16.7 mph 16.7 mph 48 % 0.0 in
15:36 25.7 °F 13.9 °F 1013.8 in ESE 14.8 mph 14.8 mph 48 % 0.0 in
15:41 25.4 °F 13.6 °F 1013.8 in ESE 11.1 mph 11.1 mph 48 % 0.0 in
15:46 25.1 °F 13.3 °F 1013.8 in East 16.7 mph 16.7 mph 48 % 0.0 in
15:51 25.3 °F 13.5 °F 1013.8 in ENE 14.8 mph 14.8 mph 48 % 0.0 in
15:56 25.9 °F 14.1 °F 1013.8 in East 9.3 mph 9.3 mph 48 % 0.0 in
16:01 25.6 °F 13.8 °F 1013.8 in East 20.4 mph 20.4 mph 48 % 0.0 in
16:06 25.6 °F 13.8 °F 1013.8 in SSE 13.7 mph 13.7 mph 48 % 0.0 in
16:11 25.5 °F 14.0 °F 1013.8 in NE 14.0 mph 14.0 mph 49 % 0.0 in
16:16 25.7 °F 14.2 °F 1013.8 in ESE 11.1 mph 11.1 mph 49 % 0.0 in
16:21 25.5 °F 14.0 °F 1013.8 in ESE 14.8 mph 14.8 mph 49 % 0.0 in
16:26 25.5 °F 14.0 °F 1013.8 in ENE 16.7 mph 16.7 mph 49 % 0.0 in
16:31 25.4 °F 13.9 °F 1013.8 in NNW 13.0 mph 13.0 mph 49 % 0.0 in
16:36 25.3 °F 13.8 °F 1013.8 in SE 11.1 mph 11.1 mph 49 % 0.0 in
16:41 25.1 °F 13.9 °F 1013.8 in WNW 18.5 mph 18.5 mph 50 % 0.0 in
16:46 24.9 °F 14.1 °F 1013.8 in ENE 11.1 mph 11.1 mph 51 % 0.0 in
16:51 25.1 °F 13.9 °F 1012.8 in ENE 14.8 mph 14.8 mph 50 % 0.0 in
16:56 25.2 °F 14.1 °F 1012.8 in ENE 9.5 mph 9.5 mph 50 % 0.0 in
17:01 25.0 °F 13.8 °F 1012.8 in ENE 10.3 mph 10.3 mph 50 % 0.0 in
17:06 24.8 °F 14.0 °F 1012.8 in ENE 16.7 mph 16.7 mph 51 % 0.0 in
17:11 24.9 °F 14.1 °F 1012.8 in SE 9.3 mph 9.3 mph 51 % 0.0 in
17:16 25.0 °F 13.8 °F 1012.8 in East 10.0 mph 10.0 mph 50 % 0.0 in
17:21 24.9 °F 13.8 °F 1012.8 in NE 11.1 mph 11.1 mph 50 % 0.0 in
17:22 25.0 °F 13.6 °F 1012.8 in ENE 11.1 mph 11.1 mph 49 % 0.0 in
17:27 25.0 °F 13.6 °F 1012.8 in NE 14.5 mph 14.5 mph 49 % 0.0 in
17:32 24.9 °F 13.4 °F 1012.8 in ENE 14.8 mph 14.8 mph 49 % 0.0 in
17:37 24.8 °F 13.3 °F 1012.8 in East 13.0 mph 13.0 mph 49 % 0.0 in
17:42 24.9 °F 13.4 °F 1012.8 in NNE 12.2 mph 12.2 mph 49 % 0.0 in
17:47 24.9 °F 12.8 °F 1012.8 in NE 11.1 mph 11.1 mph 47 % 0.0 in
17:52 25.1 °F 12.3 °F 1012.8 in ESE 16.7 mph 16.7 mph 45 % 0.0 in
17:57 25.0 °F 12.6 °F 1012.8 in ENE 11.1 mph 11.1 mph 46 % 0.0 in
18:02 25.2 °F 12.8 °F 1012.8 in SE 10.0 mph 10.0 mph 46 % 0.0 in
18:07 25.2 °F 12.8 °F 1013.8 in North 14.8 mph 14.8 mph 46 % 0.0 in
18:12 25.2 °F 13.1 °F 1013.8 in SE 9.3 mph 9.3 mph 47 % 0.0 in
18:17 25.2 °F 13.1 °F 1013.8 in ESE 11.1 mph 11.1 mph 47 % 0.0 in
18:22 25.0 °F 12.9 °F 1013.8 in NE 9.3 mph 9.3 mph 47 % 0.0 in
18:27 25.0 °F 12.9 °F 1013.8 in North 9.3 mph 9.3 mph 47 % 0.0 in
18:32 24.9 °F 13.1 °F 1013.8 in ENE 11.1 mph 11.1 mph 48 % 0.0 in
18:37 25.0 °F 12.9 °F 1013.8 in ENE 6.1 mph 6.1 mph 47 % 0.0 in
18:42 25.0 °F 12.9 °F 1013.8 in East 7.4 mph 7.4 mph 47 % 0.0 in
18:47 24.8 °F 13.1 °F 1013.8 in East 11.1 mph 11.1 mph 48 % 0.0 in
18:52 24.9 °F 13.1 °F 1013.8 in ESE 9.3 mph 9.3 mph 48 % 0.0 in
18:57 24.8 °F 13.1 °F 1013.8 in East 9.3 mph 9.3 mph 48 % 0.0 in
19:02 24.5 °F 12.8 °F 1013.8 in East 9.3 mph 9.3 mph 48 % 0.0 in
19:07 24.4 °F 12.7 °F 1013.8 in ENE 9.3 mph 9.3 mph 48 % 0.0 in
19:12 24.2 °F 13.1 °F 1013.8 in ESE 12.2 mph 12.2 mph 50 % 0.0 in
19:17 23.8 °F 13.1 °F 1013.8 in ESE 16.7 mph 16.7 mph 51 % 0.0 in
19:20 17.4 °F 13.5 °F 1014.8 in NE 4.8 mph 6.4 mph 78 % 0.0 in
19:22 23.7 °F 12.9 °F 1012.8 in NW 10.0 mph 10.0 mph 51 % 0.0 in
19:27 23.5 °F 13.1 °F 1012.8 in ESE 9.3 mph 10.8 mph 52 % 0.0 in
19:30 17.3 °F 13.4 °F 1014.8 in NE 4.8 mph 6.4 mph 78 % 0.0 in
19:32 23.3 °F 13.2 °F 1012.8 in ENE 11.1 mph 11.1 mph 53 % 0.0 in
19:37 23.1 °F 13.6 °F 1013.8 in ENE 10.0 mph 10.0 mph 55 % 0.0 in
19:40 17.3 °F 13.6 °F 1014.8 in NNE 3.2 mph 4.8 mph 79 % 0.0 in
19:42 23.0 °F 13.2 °F 1013.8 in SE 9.3 mph 9.3 mph 54 % 0.0 in
19:47 22.9 °F 13.4 °F 1013.8 in NNE 9.3 mph 9.3 mph 55 % 0.0 in
19:50 17.3 °F 13.6 °F 1014.8 in NE 3.2 mph 4.8 mph 79 % 0.0 in
19:52 22.8 °F 13.6 °F 1013.8 in NNE 11.1 mph 11.1 mph 56 % 0.0 in
19:57 22.7 °F 13.4 °F 1013.8 in ENE 7.4 mph 7.4 mph 56 % 0.0 in
20:00 17.3 °F 13.6 °F 1015.8 in NE 3.2 mph 4.8 mph 79 % 0.0 in
20:02 22.6 °F 13.4 °F 1013.8 in ENE 9.3 mph 9.3 mph 56 % 0.0 in
20:07 22.5 °F 13.6 °F 1013.8 in NE 7.2 mph 7.2 mph 57 % 0.0 in
20:10 17.1 °F 13.6 °F 1015.8 in NE 4.8 mph 6.4 mph 80 % 0.0 in
20:12 22.5 °F 13.3 °F 1013.8 in NNE 9.3 mph 9.3 mph 56 % 0.0 in
20:17 22.4 °F 13.2 °F 1013.8 in East 7.4 mph 7.4 mph 56 % 0.0 in
20:20 17.1 °F 13.6 °F 1015.8 in NE 4.8 mph 4.8 mph 80 % 0.0 in
20:22 22.3 °F 13.1 °F 1012.8 in ESE 7.4 mph 7.4 mph 56 % 0.0 in
20:27 22.2 °F 13.0 °F 1012.8 in ENE 9.3 mph 9.3 mph 56 % 0.0 in
20:30 17.1 °F 13.6 °F 1015.8 in NE 3.2 mph 6.4 mph 80 % 0.0 in
20:32 22.0 °F 13.1 °F 1012.8 in NNW 5.6 mph 5.6 mph 57 % 0.0 in
20:37 21.8 °F 13.4 °F 1013.8 in East 9.3 mph 9.3 mph 59 % 0.0 in
20:40 17.1 °F 13.6 °F 1015.8 in NE 4.8 mph 6.4 mph 80 % 0.0 in
20:42 21.7 °F 13.3 °F 1013.8 in ENE 5.6 mph 5.6 mph 59 % 0.0 in
20:47 21.5 °F 13.4 °F 1013.8 in NNE 7.4 mph 7.4 mph 60 % 0.0 in
20:50 17.2 °F 13.9 °F 1015.8 in NE 4.8 mph 6.4 mph 81 % 0.0 in
20:52 21.3 °F 13.4 °F 1013.8 in NNE 7.4 mph 7.4 mph 61 % 0.0 in
20:57 21.1 °F 13.3 °F 1013.8 in NNE 7.4 mph 7.4 mph 61 % 0.0 in
21:00 17.2 °F 13.9 °F 1015.8 in NE 4.8 mph 6.4 mph 81 % 0.0 in
21:02 21.0 °F 13.4 °F 1013.8 in NNE 7.4 mph 7.4 mph 62 % 0.0 in
21:07 20.7 °F 13.4 °F 1012.8 in ESE 5.6 mph 5.6 mph 63 % 0.0 in
21:10 17.1 °F 13.8 °F 1015.8 in NE 4.8 mph 6.4 mph 81 % 0.0 in
21:12 20.6 °F 13.3 °F 1012.8 in ENE 7.4 mph 7.4 mph 63 % 0.0 in
21:17 20.4 °F 13.3 °F 1012.8 in NNE 7.4 mph 7.4 mph 64 % 0.0 in
21:20 17.2 °F 13.9 °F 1015.8 in NE 8.0 mph 9.7 mph 81 % 0.0 in
21:22 20.2 °F 13.2 °F 1013.8 in NE 9.7 mph 9.7 mph 64 % 0.0 in
21:27 20.1 °F 13.3 °F 1013.8 in NNE 5.6 mph 5.6 mph 65 % 0.0 in
21:30 17.3 °F 14.2 °F 1015.8 in ENE 4.8 mph 8.0 mph 82 % 0.0 in
21:32 19.9 °F 13.6 °F 1013.8 in ENE 6.1 mph 6.1 mph 67 % 0.0 in
21:37 19.8 °F 13.5 °F 1012.8 in ENE 5.6 mph 5.6 mph 67 % 0.0 in
21:40 17.3 °F 14.2 °F 1015.8 in ENE 4.8 mph 6.4 mph 82 % 0.0 in
21:42 19.7 °F 13.4 °F 1012.8 in NNE 8.7 mph 8.7 mph 67 % 0.0 in
21:47 19.5 °F 13.4 °F 1012.8 in ENE 7.4 mph 7.4 mph 68 % 0.0 in
21:50 17.3 °F 14.2 °F 1015.8 in ENE 3.2 mph 8.0 mph 82 % 0.0 in
21:52 19.4 °F 13.3 °F 1013.8 in ENE 3.7 mph 3.9 mph 68 % 0.0 in
21:57 19.3 °F 13.2 °F 1013.8 in NNE 4.7 mph 4.7 mph 68 % 0.0 in
22:00 17.4 °F 14.3 °F 1015.8 in ENE 4.8 mph 11.3 mph 82 % 0.0 in
22:02 19.2 °F 13.6 °F 1013.8 in NNE 7.4 mph 7.4 mph 70 % 0.0 in
22:07 19.0 °F 13.4 °F 1014.8 in NE 7.4 mph 7.4 mph 70 % 0.0 in
22:10 17.3 °F 14.2 °F 1015.8 in ENE 4.8 mph 8.0 mph 82 % 0.0 in
22:12 18.9 °F 13.5 °F 1014.8 in ENE 5.6 mph 5.6 mph 71 % 0.0 in
22:17 18.8 °F 13.7 °F 1014.8 in ENE 6.4 mph 6.4 mph 72 % 0.0 in
22:20 17.4 °F 14.3 °F 1015.8 in ENE 4.8 mph 6.4 mph 82 % 0.0 in
22:22 18.8 °F 13.7 °F 1014.8 in NNE 5.6 mph 5.6 mph 72 % 0.0 in
22:27 18.7 °F 13.8 °F 1014.8 in ENE 5.8 mph 5.8 mph 73 % 0.0 in
22:30 17.4 °F 14.3 °F 1015.8 in ENE 4.8 mph 8.0 mph 82 % 0.0 in
22:32 18.7 °F 13.8 °F 1014.8 in NNE 7.4 mph 7.4 mph 73 % 0.0 in
22:37 18.6 °F 13.7 °F 1014.8 in NNE 5.6 mph 5.6 mph 73 % 0.0 in
22:40 17.4 °F 14.3 °F 1015.8 in East 4.8 mph 9.7 mph 82 % 0.0 in
22:42 18.6 °F 13.7 °F 1014.8 in NE 3.7 mph 3.7 mph 73 % 0.0 in
22:47 18.5 °F 13.8 °F 1014.8 in ESE 3.9 mph 3.9 mph 74 % 0.0 in
22:50 17.4 °F 14.3 °F 1015.8 in East 3.2 mph 9.7 mph 82 % 0.0 in
22:52 18.5 °F 13.8 °F 1014.8 in NNE 3.7 mph 3.9 mph 74 % 0.0 in
22:57 18.5 °F 13.8 °F 1014.8 in NNE 4.7 mph 4.7 mph 74 % 0.0 in
23:00 17.3 °F 14.2 °F 1015.8 in East 4.8 mph 9.7 mph 82 % 0.0 in
23:02 18.5 °F 13.8 °F 1014.8 in NE 5.6 mph 5.6 mph 74 % 0.0 in
23:07 18.5 °F 13.8 °F 1014.8 in NE 4.7 mph 4.7 mph 74 % 0.0 in
23:10 17.4 °F 14.3 °F 1015.8 in East 4.8 mph 6.4 mph 82 % 0.0 in
23:12 18.4 °F 13.7 °F 1014.8 in NNE 5.6 mph 5.6 mph 74 % 0.0 in
23:17 18.4 °F 13.7 °F 1014.8 in ENE 5.6 mph 5.6 mph 74 % 0.0 in
23:22 18.3 °F 13.8 °F 1014.8 in NNE 7.4 mph 7.4 mph 75 % 0.0 in
23:27 18.2 °F 13.7 °F 1014.8 in ENE 5.6 mph 5.6 mph 75 % 0.0 in
23:30 17.3 °F 14.2 °F 1015.8 in ENE 4.8 mph 6.4 mph 82 % 0.0 in
23:32 18.1 °F 13.6 °F 1014.8 in NE 5.8 mph 5.8 mph 75 % 0.0 in
23:37 17.9 °F 13.6 °F 1014.8 in NNE 5.6 mph 5.6 mph 76 % 0.0 in
23:40 17.4 °F 14.1 °F 1015.8 in ENE 3.2 mph 8.0 mph 81 % 0.0 in
23:42 17.8 °F 13.5 °F 1014.8 in East 3.7 mph 3.7 mph 76 % 0.0 in
23:47 17.8 °F 13.5 °F 1014.8 in NNE 7.4 mph 7.4 mph 76 % 0.0 in
23:50 17.4 °F 14.1 °F 1015.8 in ENE 4.8 mph 9.7 mph 81 % 0.0 in
23:52 17.7 °F 13.6 °F 1014.8 in ENE 3.7 mph 3.7 mph 77 % 0.0 in
23:57 17.6 °F 13.5 °F 1014.8 in NNE 7.4 mph 7.4 mph 77 % 0.0 in
Meteo Sesrovires
Elogis d' Weather Underground - 1.75 mb

Guio original per  Jim McMurry - jmcmurry@mwt.net Adaptat per a la plantilla per  Wim van der Kuil - Leuven-Template.eu

Trobareu la nostra informacio del temps tambe a:

Weather Underground

AWEKAS